sensor_id;sensor_type;location;lat;lon;timestamp;pressure;altitude;pressure_sealevel;temperature;humidity
25664;BME280;13522;50.018;20.014;2023-07-08T00:01:24;99416.42;;;16.10;100.00
25664;BME280;13522;50.018;20.014;2023-07-08T00:04:36;99420.82;;;16.19;100.00
25664;BME280;13522;50.018;20.014;2023-07-08T00:07:49;99424.16;;;16.13;100.00
25664;BME280;13522;50.018;20.014;2023-07-08T00:11:01;99420.08;;;16.01;100.00
25664;BME280;13522;50.018;20.014;2023-07-08T00:14:17;99426.42;;;15.92;100.00
25664;BME280;13522;50.018;20.014;2023-07-08T00:17:30;99418.05;;;15.95;100.00
25664;BME280;13522;50.018;20.014;2023-07-08T00:20:45;99431.28;;;15.97;99.72
25664;BME280;13522;50.018;20.014;2023-07-08T00:23:59;99424.52;;;15.85;100.00
25664;BME280;13522;50.018;20.014;2023-07-08T00:27:13;99430.38;;;15.80;100.00
25664;BME280;13522;50.018;20.014;2023-07-08T00:30:27;99421.45;;;15.72;100.00
25664;BME280;13522;50.018;20.014;2023-07-08T00:33:40;99423.88;;;15.57;100.00
25664;BME280;13522;50.018;20.014;2023-07-08T00:36:53;99426.42;;;15.58;100.00
25664;BME280;13522;50.018;20.014;2023-07-08T00:40:15;99420.95;;;15.68;100.00
25664;BME280;13522;50.018;20.014;2023-07-08T00:43:35;99420.27;;;15.66;100.00
25664;BME280;13522;50.018;20.014;2023-07-08T00:46:55;99417.89;;;15.63;100.00
25664;BME280;13522;50.018;20.014;2023-07-08T00:50:12;99414.23;;;15.64;100.00
25664;BME280;13522;50.018;20.014;2023-07-08T00:53:31;99417.13;;;15.71;100.00
25664;BME280;13522;50.018;20.014;2023-07-08T00:56:46;99408.92;;;15.72;100.00
25664;BME280;13522;50.018;20.014;2023-07-08T01:00:03;99407.22;;;15.71;100.00
25664;BME280;13522;50.018;20.014;2023-07-08T01:03:19;99413.89;;;15.67;100.00
25664;BME280;13522;50.018;20.014;2023-07-08T01:06:39;99409.55;;;15.66;100.00
25664;BME280;13522;50.018;20.014;2023-07-08T01:09:57;99406.88;;;15.66;100.00
25664;BME280;13522;50.018;20.014;2023-07-08T01:13:15;99407.09;;;15.47;100.00
25664;BME280;13522;50.018;20.014;2023-07-08T01:16:29;99414.95;;;15.23;100.00
25664;BME280;13522;50.018;20.014;2023-07-08T01:19:42;99409.55;;;15.15;100.00
25664;BME280;13522;50.018;20.014;2023-07-08T01:22:55;99389.80;;;15.16;100.00
25664;BME280;13522;50.018;20.014;2023-07-08T01:26:07;99397.20;;;15.22;100.00
25664;BME280;13522;50.018;20.014;2023-07-08T01:29:20;99395.54;;;15.21;100.00
25664;BME280;13522;50.018;20.014;2023-07-08T01:32:32;99400.89;;;15.21;100.00
25664;BME280;13522;50.018;20.014;2023-07-08T01:35:47;99404.48;;;15.12;100.00
25664;BME280;13522;50.018;20.014;2023-07-08T01:39:03;99409.84;;;15.12;100.00
25664;BME280;13522;50.018;20.014;2023-07-08T01:42:16;99413.14;;;15.06;100.00
25664;BME280;13522;50.018;20.014;2023-07-08T01:45:31;99414.31;;;15.03;100.00
25664;BME280;13522;50.018;20.014;2023-07-08T01:48:48;99411.77;;;15.02;100.00
25664;BME280;13522;50.018;20.014;2023-07-08T01:52:03;99409.25;;;15.00;100.00
25664;BME280;13522;50.018;20.014;2023-07-08T01:55:16;99412.94;;;14.82;100.00
25664;BME280;13522;50.018;20.014;2023-07-08T01:58:35;99414.41;;;14.58;100.00
25664;BME280;13522;50.018;20.014;2023-07-08T02:01:49;99416.18;;;14.67;100.00
25664;BME280;13522;50.018;20.014;2023-07-08T02:05:02;99401.42;;;14.81;100.00
25664;BME280;13522;50.018;20.014;2023-07-08T02:08:17;99407.98;;;14.87;100.00
25664;BME280;13522;50.018;20.014;2023-07-08T02:11:30;99413.33;;;14.87;100.00
25664;BME280;13522;50.018;20.014;2023-07-08T02:14:42;99413.78;;;14.82;100.00
25664;BME280;13522;50.018;20.014;2023-07-08T02:17:55;99411.20;;;14.72;100.00
25664;BME280;13522;50.018;20.014;2023-07-08T02:21:07;99411.20;;;14.55;100.00
25664;BME280;13522;50.018;20.014;2023-07-08T02:24:19;99410.81;;;14.50;100.00
25664;BME280;13522;50.018;20.014;2023-07-08T02:27:32;99406.79;;;14.63;100.00
25664;BME280;13522;50.018;20.014;2023-07-08T02:30:44;99412.66;;;14.67;100.00
25664;BME280;13522;50.018;20.014;2023-07-08T02:33:59;99409.83;;;14.68;100.00
25664;BME280;13522;50.018;20.014;2023-07-08T02:37:12;99404.80;;;14.65;100.00
25664;BME280;13522;50.018;20.014;2023-07-08T02:40:25;99418.70;;;14.51;100.00
25664;BME280;13522;50.018;20.014;2023-07-08T02:43:38;99413.35;;;14.51;100.00
25664;BME280;13522;50.018;20.014;2023-07-08T02:46:50;99417.85;;;14.51;100.00
25664;BME280;13522;50.018;20.014;2023-07-08T02:50:02;99423.03;;;14.52;100.00
25664;BME280;13522;50.018;20.014;2023-07-08T02:53:16;99426.63;;;14.43;100.00
25664;BME280;13522;50.018;20.014;2023-07-08T02:56:28;99430.80;;;14.28;100.00
25664;BME280;13522;50.018;20.014;2023-07-08T02:59:41;99431.64;;;14.29;100.00
25664;BME280;13522;50.018;20.014;2023-07-08T03:02:53;99434.41;;;14.37;100.00
25664;BME280;13522;50.018;20.014;2023-07-08T03:06:08;99431.98;;;14.43;100.00
25664;BME280;13522;50.018;20.014;2023-07-08T03:09:21;99437.01;;;14.46;100.00
25664;BME280;13522;50.018;20.014;2023-07-08T03:12:33;99442.73;;;14.24;100.00
25664;BME280;13522;50.018;20.014;2023-07-08T03:15:47;99444.16;;;14.28;100.00
25664;BME280;13522;50.018;20.014;2023-07-08T03:19:01;99442.45;;;14.27;100.00
25664;BME280;13522;50.018;20.014;2023-07-08T03:22:14;99448.90;;;14.34;100.00
25664;BME280;13522;50.018;20.014;2023-07-08T03:25:27;99446.10;;;14.36;100.00
25664;BME280;13522;50.018;20.014;2023-07-08T03:28:41;99452.35;;;14.44;100.00
25664;BME280;13522;50.018;20.014;2023-07-08T03:31:54;99459.86;;;14.58;100.00
25664;BME280;13522;50.018;20.014;2023-07-08T03:35:08;99452.08;;;14.65;100.00
25664;BME280;13522;50.018;20.014;2023-07-08T03:38:20;99449.85;;;14.78;100.00
25664;BME280;13522;50.018;20.014;2023-07-08T03:41:33;99455.36;;;14.76;100.00
25664;BME280;13522;50.018;20.014;2023-07-08T03:44:45;99451.91;;;14.84;100.00
25664;BME280;13522;50.018;20.014;2023-07-08T03:47:59;99451.46;;;14.89;100.00
25664;BME280;13522;50.018;20.014;2023-07-08T03:51:16;99449.70;;;14.97;100.00
25664;BME280;13522;50.018;20.014;2023-07-08T03:54:31;99462.92;;;14.99;100.00
25664;BME280;13522;50.018;20.014;2023-07-08T03:57:43;99454.50;;;14.94;100.00
25664;BME280;13522;50.018;20.014;2023-07-08T04:00:56;99450.92;;;15.03;100.00
25664;BME280;13522;50.018;20.014;2023-07-08T04:04:12;99452.29;;;15.07;100.00
25664;BME280;13522;50.018;20.014;2023-07-08T04:07:25;99449.97;;;15.12;100.00
25664;BME280;13522;50.018;20.014;2023-07-08T04:10:38;99441.09;;;15.29;100.00
25664;BME280;13522;50.018;20.014;2023-07-08T04:13:51;99440.08;;;15.30;100.00
25664;BME280;13522;50.018;20.014;2023-07-08T04:17:06;99437.79;;;15.35;100.00
25664;BME280;13522;50.018;20.014;2023-07-08T04:20:20;99438.56;;;15.45;100.00
25664;BME280;13522;50.018;20.014;2023-07-08T04:23:32;99434.92;;;15.54;100.00
25664;BME280;13522;50.018;20.014;2023-07-08T04:26:45;99423.24;;;15.63;100.00
25664;BME280;13522;50.018;20.014;2023-07-08T04:29:58;99423.29;;;15.71;100.00
25664;BME280;13522;50.018;20.014;2023-07-08T04:33:11;99428.69;;;15.79;100.00
25664;BME280;13522;50.018;20.014;2023-07-08T04:36:25;99423.75;;;15.92;99.92
25664;BME280;13522;50.018;20.014;2023-07-08T04:39:37;99427.81;;;16.04;98.68
25664;BME280;13522;50.018;20.014;2023-07-08T04:42:50;99431.85;;;16.16;96.23
25664;BME280;13522;50.018;20.014;2023-07-08T04:46:02;99423.53;;;16.27;96.25
25664;BME280;13522;50.018;20.014;2023-07-08T04:49:15;99434.61;;;16.40;98.20
25664;BME280;13522;50.018;20.014;2023-07-08T04:52:27;99427.14;;;16.60;98.17
25664;BME280;13522;50.018;20.014;2023-07-08T04:55:41;99432.52;;;16.68;97.61
25664;BME280;13522;50.018;20.014;2023-07-08T04:58:54;99430.88;;;16.83;96.31
25664;BME280;13522;50.018;20.014;2023-07-08T05:02:08;99431.38;;;16.87;96.02
25664;BME280;13522;50.018;20.014;2023-07-08T05:05:20;99425.52;;;16.91;95.48
25664;BME280;13522;50.018;20.014;2023-07-08T05:08:33;99432.05;;;17.05;94.61
25664;BME280;13522;50.018;20.014;2023-07-08T05:11:45;99428.70;;;17.11;93.70
25664;BME280;13522;50.018;20.014;2023-07-08T05:14:58;99425.66;;;17.14;94.89
25664;BME280;13522;50.018;20.014;2023-07-08T05:18:12;99419.44;;;17.21;95.64
25664;BME280;13522;50.018;20.014;2023-07-08T05:21:24;99425.63;;;17.38;94.45
25664;BME280;13522;50.018;20.014;2023-07-08T05:24:40;99418.41;;;17.47;92.80
25664;BME280;13522;50.018;20.014;2023-07-08T05:27:53;99425.64;;;17.54;91.48
25664;BME280;13522;50.018;20.014;2023-07-08T05:31:06;99415.55;;;17.64;88.57
25664;BME280;13522;50.018;20.014;2023-07-08T05:34:19;99420.53;;;17.75;87.87
25664;BME280;13522;50.018;20.014;2023-07-08T05:37:31;99418.67;;;17.84;86.11
25664;BME280;13522;50.018;20.014;2023-07-08T05:40:43;99423.83;;;17.93;84.58
25664;BME280;13522;50.018;20.014;2023-07-08T05:44:00;99413.72;;;18.03;84.71
25664;BME280;13522;50.018;20.014;2023-07-08T05:47:12;99415.00;;;18.15;85.58
25664;BME280;13522;50.018;20.014;2023-07-08T05:50:25;99412.27;;;18.24;82.84
25664;BME280;13522;50.018;20.014;2023-07-08T05:53:37;99422.33;;;18.30;83.71
25664;BME280;13522;50.018;20.014;2023-07-08T05:56:49;99408.84;;;18.38;84.57
25664;BME280;13522;50.018;20.014;2023-07-08T06:00:02;99408.77;;;18.54;84.45
25664;BME280;13522;50.018;20.014;2023-07-08T06:03:17;99402.68;;;18.60;82.05
25664;BME280;13522;50.018;20.014;2023-07-08T06:06:30;99412.83;;;18.72;83.60
25664;BME280;13522;50.018;20.014;2023-07-08T06:09:43;99418.09;;;18.88;81.82
25664;BME280;13522;50.018;20.014;2023-07-08T06:12:55;99414.34;;;18.97;81.02
25664;BME280;13522;50.018;20.014;2023-07-08T06:16:08;99419.74;;;19.12;81.15
25664;BME280;13522;50.018;20.014;2023-07-08T06:19:24;99414.52;;;19.33;81.04
25664;BME280;13522;50.018;20.014;2023-07-08T06:22:37;99412.97;;;19.53;77.38
25664;BME280;13522;50.018;20.014;2023-07-08T06:25:52;99410.75;;;19.71;76.02
25664;BME280;13522;50.018;20.014;2023-07-08T06:29:05;99411.58;;;20.01;76.15
25664;BME280;13522;50.018;20.014;2023-07-08T06:32:17;99410.28;;;20.26;75.36
25664;BME280;13522;50.018;20.014;2023-07-08T06:35:30;99405.25;;;20.59;78.35
25664;BME280;13522;50.018;20.014;2023-07-08T06:38:42;99404.67;;;20.85;72.48
25664;BME280;13522;50.018;20.014;2023-07-08T06:41:55;99406.61;;;21.12;71.96
25664;BME280;13522;50.018;20.014;2023-07-08T06:45:11;99400.57;;;21.37;69.60
25664;BME280;13522;50.018;20.014;2023-07-08T06:48:23;99407.01;;;21.64;68.79
25664;BME280;13522;50.018;20.014;2023-07-08T06:51:36;99404.76;;;22.02;70.65
25664;BME280;13522;50.018;20.014;2023-07-08T06:54:49;99402.44;;;22.46;69.85
25664;BME280;13522;50.018;20.014;2023-07-08T06:58:01;99393.55;;;22.65;67.00
25664;BME280;13522;50.018;20.014;2023-07-08T07:01:14;99400.06;;;23.16;67.67
25664;BME280;13522;50.018;20.014;2023-07-08T07:04:26;99394.98;;;23.85;64.81
25664;BME280;13522;50.018;20.014;2023-07-08T07:07:38;99389.67;;;24.61;60.36
25664;BME280;13522;50.018;20.014;2023-07-08T07:10:51;99389.34;;;25.13;59.02
25664;BME280;13522;50.018;20.014;2023-07-08T07:14:04;99379.89;;;25.65;58.48
25664;BME280;13522;50.018;20.014;2023-07-08T07:17:18;99375.14;;;25.97;53.29
25664;BME280;13522;50.018;20.014;2023-07-08T07:20:32;99371.70;;;26.37;55.63
25664;BME280;13522;50.018;20.014;2023-07-08T07:23:46;99360.53;;;26.57;51.34
25664;BME280;13522;50.018;20.014;2023-07-08T07:26:58;99363.28;;;26.69;50.87
25664;BME280;13522;50.018;20.014;2023-07-08T07:30:12;99360.33;;;27.00;49.33
25664;BME280;13522;50.018;20.014;2023-07-08T07:33:24;99365.38;;;27.49;47.98
25664;BME280;13522;50.018;20.014;2023-07-08T07:36:37;99353.81;;;27.82;48.95
25664;BME280;13522;50.018;20.014;2023-07-08T07:39:49;99356.42;;;28.00;48.07
25664;BME280;13522;50.018;20.014;2023-07-08T07:43:02;99360.29;;;28.15;45.70
25664;BME280;13522;50.018;20.014;2023-07-08T07:46:14;99357.58;;;28.44;47.73
25664;BME280;13522;50.018;20.014;2023-07-08T07:49:27;99354.47;;;28.80;45.56
25664;BME280;13522;50.018;20.014;2023-07-08T07:52:39;99350.20;;;29.17;46.82
25664;BME280;13522;50.018;20.014;2023-07-08T07:55:58;99346.11;;;29.36;44.19
25664;BME280;13522;50.018;20.014;2023-07-08T07:59:12;99336.92;;;29.64;42.39
25664;BME280;13522;50.018;20.014;2023-07-08T08:02:24;99340.06;;;29.89;41.24
25664;BME280;13522;50.018;20.014;2023-07-08T08:05:37;99344.83;;;29.99;43.88
25664;BME280;13522;50.018;20.014;2023-07-08T08:08:50;99344.13;;;30.08;42.46
25664;BME280;13522;50.018;20.014;2023-07-08T08:12:06;99335.14;;;30.13;37.08
25664;BME280;13522;50.018;20.014;2023-07-08T08:15:20;99333.66;;;30.05;36.32
25664;BME280;13522;50.018;20.014;2023-07-08T08:18:33;99334.81;;;30.31;34.97
25664;BME280;13522;50.018;20.014;2023-07-08T08:21:45;99330.99;;;30.58;35.89
25664;BME280;13522;50.018;20.014;2023-07-08T08:24:58;99317.52;;;30.52;33.21
25664;BME280;13522;50.018;20.014;2023-07-08T08:28:10;99334.24;;;30.29;31.99
25664;BME280;13522;50.018;20.014;2023-07-08T08:31:22;99336.78;;;30.14;32.22
25664;BME280;13522;50.018;20.014;2023-07-08T08:34:37;99325.97;;;30.77;33.91
25664;BME280;13522;50.018;20.014;2023-07-08T08:37:51;99323.59;;;30.59;32.64
25664;BME280;13522;50.018;20.014;2023-07-08T08:41:10;99331.78;;;31.12;36.45
25664;BME280;13522;50.018;20.014;2023-07-08T08:44:27;99326.17;;;31.34;33.17
25664;BME280;13522;50.018;20.014;2023-07-08T08:47:44;99321.11;;;31.52;33.03
25664;BME280;13522;50.018;20.014;2023-07-08T08:51:00;99315.46;;;31.74;31.68
25664;BME280;13522;50.018;20.014;2023-07-08T08:54:16;99312.30;;;31.45;32.40
25664;BME280;13522;50.018;20.014;2023-07-08T08:57:35;99313.59;;;31.85;33.55
25664;BME280;13522;50.018;20.014;2023-07-08T09:00:53;99316.34;;;31.38;31.50
25664;BME280;13522;50.018;20.014;2023-07-08T09:04:10;99319.60;;;31.77;32.88
25664;BME280;13522;50.018;20.014;2023-07-08T09:07:24;99320.30;;;32.04;33.07
25664;BME280;13522;50.018;20.014;2023-07-08T09:10:47;99312.05;;;31.99;31.73
25664;BME280;13522;50.018;20.014;2023-07-08T09:14:03;99312.05;;;31.99;31.42
25664;BME280;13522;50.018;20.014;2023-07-08T09:17:23;99303.08;;;32.43;28.80
25664;BME280;13522;50.018;20.014;2023-07-08T09:20:40;99297.23;;;31.53;29.78
25664;BME280;13522;50.018;20.014;2023-07-08T09:23:56;99301.11;;;31.62;30.42
25664;BME280;13522;50.018;20.014;2023-07-08T09:27:11;99309.33;;;32.09;32.01
25664;BME280;13522;50.018;20.014;2023-07-08T09:30:24;99306.23;;;31.95;29.86
25664;BME280;13522;50.018;20.014;2023-07-08T09:33:40;99294.51;;;32.15;29.64
25664;BME280;13522;50.018;20.014;2023-07-08T09:36:53;99300.81;;;32.15;28.99
25664;BME280;13522;50.018;20.014;2023-07-08T09:40:16;99297.12;;;31.90;28.73
25664;BME280;13522;50.018;20.014;2023-07-08T09:43:35;99296.23;;;31.74;28.76
25664;BME280;13522;50.018;20.014;2023-07-08T09:46:49;99304.52;;;31.84;31.60
25664;BME280;13522;50.018;20.014;2023-07-08T09:50:02;99294.20;;;32.11;29.07
25664;BME280;13522;50.018;20.014;2023-07-08T09:53:18;99295.83;;;32.07;30.33
25664;BME280;13522;50.018;20.014;2023-07-08T09:56:30;99291.78;;;32.30;29.89
25664;BME280;13522;50.018;20.014;2023-07-08T09:59:45;99286.03;;;32.36;28.90
25664;BME280;13522;50.018;20.014;2023-07-08T10:03:02;99280.17;;;32.03;28.53
25664;BME280;13522;50.018;20.014;2023-07-08T10:06:20;99285.67;;;32.03;29.71
25664;BME280;13522;50.018;20.014;2023-07-08T10:09:34;99289.87;;;32.35;31.70
25664;BME280;13522;50.018;20.014;2023-07-08T10:12:53;99283.05;;;32.48;29.40
25664;BME280;13522;50.018;20.014;2023-07-08T10:16:13;99283.83;;;32.43;29.07
25664;BME280;13522;50.018;20.014;2023-07-08T10:19:27;99285.12;;;32.06;30.76
25664;BME280;13522;50.018;20.014;2023-07-08T10:22:45;99283.61;;;32.50;31.17
25664;BME280;13522;50.018;20.014;2023-07-08T10:26:07;99282.52;;;32.71;30.46
25664;BME280;13522;50.018;20.014;2023-07-08T10:29:24;99272.89;;;33.09;30.80
25664;BME280;13522;50.018;20.014;2023-07-08T10:32:45;99269.02;;;32.95;28.97
25664;BME280;13522;50.018;20.014;2023-07-08T10:36:11;99272.59;;;33.20;29.88
25664;BME280;13522;50.018;20.014;2023-07-08T10:39:43;99267.65;;;33.12;29.35
25664;BME280;13522;50.018;20.014;2023-07-08T10:47:03;99263.55;;;33.10;29.31
25664;BME280;13522;50.018;20.014;2023-07-08T10:50:35;99257.14;;;33.35;29.99
25664;BME280;13522;50.018;20.014;2023-07-08T10:54:07;99254.70;;;32.93;30.46
25664;BME280;13522;50.018;20.014;2023-07-08T10:57:40;99251.72;;;32.99;29.98
25664;BME280;13522;50.018;20.014;2023-07-08T11:01:04;99249.48;;;32.91;28.78
25664;BME280;13522;50.018;20.014;2023-07-08T11:04:34;99243.30;;;31.94;28.03
25664;BME280;13522;50.018;20.014;2023-07-08T11:07:59;99240.08;;;32.37;29.97
25664;BME280;13522;50.018;20.014;2023-07-08T11:11:21;99232.92;;;32.11;29.28
25664;BME280;13522;50.018;20.014;2023-07-08T11:14:42;99233.50;;;32.38;31.62
25664;BME280;13522;50.018;20.014;2023-07-08T11:18:00;99218.67;;;32.49;30.84
25664;BME280;13522;50.018;20.014;2023-07-08T11:21:17;99229.14;;;32.62;31.31
25664;BME280;13522;50.018;20.014;2023-07-08T11:24:34;99227.98;;;32.28;28.15
25664;BME280;13522;50.018;20.014;2023-07-08T11:27:51;99230.79;;;32.48;32.36
25664;BME280;13522;50.018;20.014;2023-07-08T11:31:06;99234.09;;;32.50;33.00
25664;BME280;13522;50.018;20.014;2023-07-08T11:34:19;99220.33;;;32.55;29.43
25664;BME280;13522;50.018;20.014;2023-07-08T11:37:35;99225.28;;;32.53;31.68
25664;BME280;13522;50.018;20.014;2023-07-08T11:40:57;99220.88;;;32.67;31.53
25664;BME280;13522;50.018;20.014;2023-07-08T11:44:13;99217.58;;;32.65;31.03
25664;BME280;13522;50.018;20.014;2023-07-08T11:47:35;99224.73;;;32.51;32.47
25664;BME280;13522;50.018;20.014;2023-07-08T11:50:50;99211.25;;;32.50;30.51
25664;BME280;13522;50.018;20.014;2023-07-08T11:54:11;99200.73;;;32.06;28.53
25664;BME280;13522;50.018;20.014;2023-07-08T11:57:30;99206.28;;;32.36;31.85
25664;BME280;13522;50.018;20.014;2023-07-08T12:00:46;99202.95;;;32.19;30.80
25664;BME280;13522;50.018;20.014;2023-07-08T12:04:27;99178.50;;;32.38;31.73
25664;BME280;13522;50.018;20.014;2023-07-08T12:07:45;99206.48;;;31.95;30.20
25664;BME280;13522;50.018;20.014;2023-07-08T12:10:58;99198.87;;;32.57;29.14
25664;BME280;13522;50.018;20.014;2023-07-08T12:14:11;99197.73;;;32.88;30.93
25664;BME280;13522;50.018;20.014;2023-07-08T12:17:24;99189.78;;;32.57;29.93
25664;BME280;13522;50.018;20.014;2023-07-08T12:20:39;99185.92;;;32.73;32.21
25664;BME280;13522;50.018;20.014;2023-07-08T12:23:53;99193.92;;;32.74;31.62
25664;BME280;13522;50.018;20.014;2023-07-08T12:27:07;99192.46;;;32.01;30.72
25664;BME280;13522;50.018;20.014;2023-07-08T12:30:21;99184.50;;;31.95;29.35
25664;BME280;13522;50.018;20.014;2023-07-08T12:33:34;99181.80;;;32.40;31.02
25664;BME280;13522;50.018;20.014;2023-07-08T12:36:47;99172.73;;;32.70;28.83
25664;BME280;13522;50.018;20.014;2023-07-08T12:40:00;99182.92;;;32.74;32.06
25664;BME280;13522;50.018;20.014;2023-07-08T12:43:14;99180.68;;;32.96;32.94
25664;BME280;13522;50.018;20.014;2023-07-08T12:46:28;99182.88;;;32.84;31.39
25664;BME280;13522;50.018;20.014;2023-07-08T12:49:40;99181.81;;;32.65;33.35
25664;BME280;13522;50.018;20.014;2023-07-08T12:52:53;99176.55;;;32.23;30.66
25664;BME280;13522;50.018;20.014;2023-07-08T12:56:10;99169.97;;;32.24;30.39
25664;BME280;13522;50.018;20.014;2023-07-08T12:59:24;99170.82;;;32.60;31.10
25664;BME280;13522;50.018;20.014;2023-07-08T13:02:37;99173.84;;;32.54;32.15
25664;BME280;13522;50.018;20.014;2023-07-08T13:05:50;99173.55;;;32.80;31.13
25664;BME280;13522;50.018;20.014;2023-07-08T13:09:11;99152.64;;;32.69;28.66
25664;BME280;13522;50.018;20.014;2023-07-08T13:12:28;99161.98;;;32.18;29.43
25664;BME280;13522;50.018;20.014;2023-07-08T13:15:44;99164.19;;;32.26;31.13
25664;BME280;13522;50.018;20.014;2023-07-08T13:18:57;99160.00;;;31.83;29.03
25664;BME280;13522;50.018;20.014;2023-07-08T13:22:14;99153.94;;;31.86;29.41
25664;BME280;13522;50.018;20.014;2023-07-08T13:25:30;99150.45;;;32.11;30.83
25664;BME280;13522;50.018;20.014;2023-07-08T13:28:42;99151.54;;;32.05;30.20
25664;BME280;13522;50.018;20.014;2023-07-08T13:32:01;99152.09;;;32.22;29.84
25664;BME280;13522;50.018;20.014;2023-07-08T13:35:26;99152.07;;;32.02;30.79
25664;BME280;13522;50.018;20.014;2023-07-08T13:38:41;99141.09;;;32.12;29.30
25664;BME280;13522;50.018;20.014;2023-07-08T13:41:54;99144.95;;;32.36;30.74
25664;BME280;13522;50.018;20.014;2023-07-08T13:45:15;99141.36;;;32.35;31.33
25664;BME280;13522;50.018;20.014;2023-07-08T13:48:36;99143.58;;;32.28;31.55
25664;BME280;13522;50.018;20.014;2023-07-08T13:51:50;99140.25;;;32.11;30.66
25664;BME280;13522;50.018;20.014;2023-07-08T13:55:15;99126.52;;;32.06;30.06
25664;BME280;13522;50.018;20.014;2023-07-08T13:58:30;99131.67;;;31.88;30.84
25664;BME280;13522;50.018;20.014;2023-07-08T14:01:43;99131.13;;;31.81;31.26
25664;BME280;13522;50.018;20.014;2023-07-08T14:04:58;99122.67;;;32.02;31.13
25664;BME280;13522;50.018;20.014;2023-07-08T14:08:14;99125.08;;;31.79;30.65
25664;BME280;13522;50.018;20.014;2023-07-08T14:11:28;99126.17;;;31.73;30.45
25664;BME280;13522;50.018;20.014;2023-07-08T14:14:41;99128.91;;;31.73;30.76
25664;BME280;13522;50.018;20.014;2023-07-08T14:17:53;99131.08;;;31.66;31.52
25664;BME280;13522;50.018;20.014;2023-07-08T14:21:06;99132.16;;;31.49;31.68
25664;BME280;13522;50.018;20.014;2023-07-08T14:24:19;99129.83;;;31.21;30.70
25664;BME280;13522;50.018;20.014;2023-07-08T14:27:31;99124.09;;;30.81;30.93
25664;BME280;13522;50.018;20.014;2023-07-08T14:30:45;99131.49;;;30.80;32.17
25664;BME280;13522;50.018;20.014;2023-07-08T14:34:05;99122.55;;;30.53;32.29
25664;BME280;13522;50.018;20.014;2023-07-08T14:37:18;99120.59;;;30.49;32.40
25664;BME280;13522;50.018;20.014;2023-07-08T14:40:34;99111.59;;;30.22;31.26
25664;BME280;13522;50.018;20.014;2023-07-08T14:43:46;99119.22;;;30.15;33.52
25664;BME280;13522;50.018;20.014;2023-07-08T14:46:58;99114.13;;;29.97;31.73
25664;BME280;13522;50.018;20.014;2023-07-08T14:50:16;99103.73;;;29.99;32.81
25664;BME280;13522;50.018;20.014;2023-07-08T14:53:32;99112.99;;;29.92;33.41
25664;BME280;13522;50.018;20.014;2023-07-08T14:56:45;99101.57;;;29.74;32.20
25664;BME280;13522;50.018;20.014;2023-07-08T14:59:58;99105.05;;;29.69;31.74
25664;BME280;13522;50.018;20.014;2023-07-08T15:03:11;99108.47;;;29.55;30.52
25664;BME280;13522;50.018;20.014;2023-07-08T15:06:26;99109.30;;;29.55;34.57
25664;BME280;13522;50.018;20.014;2023-07-08T15:09:39;99108.47;;;29.55;35.23
25664;BME280;13522;50.018;20.014;2023-07-08T15:12:52;99096.00;;;29.42;32.34
25664;BME280;13522;50.018;20.014;2023-07-08T15:16:07;99098.73;;;29.42;35.30
25664;BME280;13522;50.018;20.014;2023-07-08T15:19:22;99096.45;;;29.34;35.60
25664;BME280;13522;50.018;20.014;2023-07-08T15:22:37;99094.39;;;29.20;34.83
25664;BME280;13522;50.018;20.014;2023-07-08T15:25:50;99088.77;;;29.09;33.39
25664;BME280;13522;50.018;20.014;2023-07-08T15:29:04;99096.40;;;29.07;35.04
25664;BME280;13522;50.018;20.014;2023-07-08T15:32:18;99093.09;;;29.05;34.92
25664;BME280;13522;50.018;20.014;2023-07-08T15:35:34;99087.98;;;28.92;34.89
25664;BME280;13522;50.018;20.014;2023-07-08T15:38:48;99095.61;;;28.90;35.06
25664;BME280;13522;50.018;20.014;2023-07-08T15:42:01;99098.61;;;28.89;35.40
25664;BME280;13522;50.018;20.014;2023-07-08T15:45:20;99097.41;;;28.80;37.42
25664;BME280;13522;50.018;20.014;2023-07-08T15:48:35;99095.97;;;28.56;35.07
25664;BME280;13522;50.018;20.014;2023-07-08T15:51:48;99104.16;;;28.56;36.13
25664;BME280;13522;50.018;20.014;2023-07-08T15:55:01;99096.80;;;28.56;36.65
25664;BME280;13522;50.018;20.014;2023-07-08T15:58:21;99103.23;;;28.50;37.99
25664;BME280;13522;50.018;20.014;2023-07-08T16:01:38;99100.83;;;28.37;38.27
25664;BME280;13522;50.018;20.014;2023-07-08T16:04:51;99091.16;;;28.29;36.17
25664;BME280;13522;50.018;20.014;2023-07-08T16:08:04;99091.09;;;28.24;35.60
25664;BME280;13522;50.018;20.014;2023-07-08T16:11:23;99095.88;;;28.17;39.46
25664;BME280;13522;50.018;20.014;2023-07-08T16:14:37;99098.38;;;28.02;37.85
25664;BME280;13522;50.018;20.014;2023-07-08T16:17:50;99095.31;;;27.99;37.60
25664;BME280;13522;50.018;20.014;2023-07-08T16:21:02;99094.73;;;27.97;39.20
25664;BME280;13522;50.018;20.014;2023-07-08T16:24:18;99104.83;;;27.96;40.71
25664;BME280;13522;50.018;20.014;2023-07-08T16:27:30;99103.88;;;27.91;39.95
25664;BME280;13522;50.018;20.014;2023-07-08T16:30:43;99102.03;;;27.80;40.56
25664;BME280;13522;50.018;20.014;2023-07-08T16:33:56;99096.83;;;27.78;38.04
25664;BME280;13522;50.018;20.014;2023-07-08T16:37:10;99088.53;;;27.73;38.81
25664;BME280;13522;50.018;20.014;2023-07-08T16:40:26;99089.88;;;27.71;39.49
25664;BME280;13522;50.018;20.014;2023-07-08T16:43:39;99100.60;;;27.61;40.98
25664;BME280;13522;50.018;20.014;2023-07-08T16:46:52;99106.20;;;27.54;43.13
25664;BME280;13522;50.018;20.014;2023-07-08T16:50:07;99098.66;;;27.44;41.56
25664;BME280;13522;50.018;20.014;2023-07-08T16:53:20;99106.98;;;27.38;42.83
25664;BME280;13522;50.018;20.014;2023-07-08T16:56:33;99095.48;;;27.36;41.74
25664;BME280;13522;50.018;20.014;2023-07-08T16:59:46;99091.80;;;27.30;39.75